Flight Track Log - Related Links

Times and Time Zones

All times are in EDT time to prevent confusion due to time zone crossing. See the FLG3862 flight status page for this flight to view local times or setup timezone preferences in your user account.

Time Position Orientation Groundspeed Altitude Reporting Facility
EDT Latitude Longitude Course Direction KTS MPH feet Rate Location/Type
Mon 10:44:29 AM 42.2314 -83.3342 82° East 155 178 1,400  Level Cleveland Center
Mon 10:45:54 AM 42.2953 -83.2781 33° Northeast 222 255 4,800 2,507 Climbing Cleveland Center
Mon 10:46:55 AM 42.3161 -83.1892 72° East 286 329 7,500 2,122 Climbing Cleveland Center
Mon 10:47:00 AM 42.2853 -82.9069 75° East  Level FlightAware Approximate
Mon 10:48:00 AM 42.3148 -82.7593 75° East  Level FlightAware Approximate
Mon 10:48:21 AM 42.3031 -83.0228 96° East 314 361 10,000  Level Cleveland Center
Mon 10:49:00 AM 42.3309 -82.6080 82° East  Level FlightAware Approximate
Mon 10:49:21 AM 42.2953 -82.8964 95° East 333 383 11,300  Level Cleveland Center
Mon 10:50:21 AM 42.3144 -82.7678 79° East 333 383 12,800 1,500 Climbing Cleveland Center
Mon 10:51:21 AM 42.3356 -82.6364 78° East 340 391 14,300 1,550 Climbing Cleveland Center
Mon 10:52:21 AM 42.3506 -82.4992 82° East 359 413 15,900 1,550 Climbing Cleveland Center
Mon 10:53:21 AM 42.3464 -82.3586 92° East 365 420 17,400 1,400 Climbing Cleveland Center
Mon 10:54:21 AM 42.3403 -82.2153 93° East 370 426 18,700 1,300 Climbing Cleveland Center
Mon 10:55:21 AM 42.3358 -82.0692 92° East 385 443 20,000 1,000 Climbing Cleveland Center
Mon 10:56:21 AM 42.3294 -81.9172 93° East 391 450 20,700 600 Climbing Cleveland Center
Mon 10:57:21 AM 42.3247 -81.7794 93° East 397 457 21,200 550 Climbing Cleveland Center
Mon 10:58:21 AM 42.3181 -81.6164 93° East 420 483 21,800 550 Climbing Cleveland Center
Mon 10:59:21 AM 42.3111 -81.4481 93° East 441 507 22,300 600 Climbing Cleveland Center
Mon 11:00:21 AM 42.3039 -81.2794 93° East 446 513 23,000 850 Climbing Cleveland Center
Mon 11:01:21 AM 42.2964 -81.1108 93° East 451 519 24,000 1,000 Climbing Cleveland Center
Mon 11:02:21 AM 42.2889 -80.9283 93° East 446 513 25,000 600 Climbing Cleveland Center
Mon 11:03:21 AM 42.2911 -80.7628 89° East 441 507 25,200 600 Climbing Cleveland Center
Mon 11:04:21 AM 42.3269 -80.6056 73° East 441 507 26,200 900 Climbing Cleveland Center
Mon 11:05:21 AM 42.3600 -80.4456 74° East 446 513 27,000 400 Climbing Cleveland Center
Mon 11:06:21 AM 42.3931 -80.2853 74° East 436 502 27,000 150 Level Cleveland Center
Mon 11:07:21 AM 42.4281 -80.1192 74° East 436 502 27,300 500 Climbing Cleveland Center
Mon 11:08:21 AM 42.4567 -79.9753 75° East 443 510 28,000 750 Climbing Cleveland Center
Mon 11:09:21 AM 42.4953 -79.8144 72° East 438 504 28,800 700 Climbing Cleveland Center
Mon 11:10:21 AM 42.5253 -79.6592 75° East 433 498 29,400 550 Climbing Cleveland Center
Mon 11:11:21 AM 42.5572 -79.5064 74° East 428 493 29,900 500 Climbing Cleveland Center
Mon 11:12:21 AM 42.5933 -79.3564 72° East 422 486 30,400 500 Climbing Cleveland Center
Mon 11:13:21 AM 42.6417 -79.2142 65° Northeast 417 480 30,900 300 Climbing Cleveland Center
Mon 11:14:21 AM 42.6964 -79.0747 62° Northeast 404 465 31,000 50 Climbing Cleveland Center
Mon 11:15:21 AM 42.7464 -78.9264 65° Northeast 409 471 31,000  Level Cleveland Center
Mon 11:16:21 AM 42.8006 -78.7808 63° Northeast 414 476 31,000  Level Cleveland Center
Mon 11:17:21 AM 42.8542 -78.6292 64° Northeast 431 496 31,000  Level Cleveland Center
Mon 11:18:21 AM 42.9078 -78.4714 65° Northeast 436 502 31,000  Level Cleveland Center
Mon 11:19:21 AM 42.9631 -78.3136 64° Northeast 446 513 31,000  Level Cleveland Center
Mon 11:20:21 AM 43.0183 -78.1581 64° Northeast 451 519 31,000  Level Cleveland Center
Mon 11:21:21 AM 43.0753 -77.9967 64° Northeast 451 519 31,000  Level Cleveland Center
Mon 11:22:21 AM 43.1300 -77.8381 65° Northeast 451 519 31,000  Level Cleveland Center
Mon 11:23:21 AM 43.1864 -77.6731 65° Northeast 451 519 31,000  Level Cleveland Center
Mon 11:24:21 AM 43.2428 -77.5108 64° Northeast 456 525 31,000  Level Cleveland Center
Mon 11:25:21 AM 43.3025 -77.3339 65° Northeast 461 531 31,000  Level Cleveland Center
Mon 11:26:56 AM 43.3922 -77.0725 65° Northeast 500 575 31,000  Level Boston Center
Mon 11:27:56 AM 43.4467 -76.9078 65° Northeast 486 559 31,000  Level Boston Center
Mon 11:28:56 AM 43.5033 -76.7403 65° Northeast 481 554 31,000  Level Boston Center
Mon 11:29:56 AM 43.5594 -76.5722 65° Northeast 481 554 31,000  Level Boston Center
Mon 11:30:56 AM 43.6094 -76.4006 68° East 476 548 31,000  Level Boston Center
Mon 11:31:56 AM 43.6569 -76.2258 69° East 476 548 31,000  Level Boston Center
Mon 11:32:56 AM 43.7086 -76.0508 68° East 476 548 31,000  Level Boston Center
Mon 11:33:56 AM 43.7578 -75.8756 69° East 488 562 31,000  Level Boston Center
Mon 11:34:56 AM 43.8067 -75.6969 69° East 488 562 31,000  Level Boston Center
Mon 11:36:08 AM 43.8581 -75.4953 70° East 495 570 31,000  Level Boston Center
Mon 11:37:08 AM 43.9064 -75.3161 69° East 500 575 31,000 -250 Level Boston Center
Mon 11:38:08 AM 43.9567 -75.1367 69° East 500 575 30,500 -1,300 Descending Boston Center
Mon 11:39:08 AM 44.0067 -74.9514 69° East 500 575 28,400 -2,050 Descending Boston Center
Mon 11:40:08 AM 44.0522 -74.7742 70° East 495 570 26,400 -2,000 Descending Boston Center
Mon 11:41:08 AM 44.0972 -74.6053 70° East 479 551 24,400 -2,000 Descending Boston Center
Mon 11:42:08 AM 44.1394 -74.4506 69° East 454 522 22,400 -2,250 Descending Boston Center
Mon 11:43:08 AM 44.1842 -74.2842 69° East 441 507 19,900 -2,750 Descending Boston Center
Mon 11:44:08 AM 44.2261 -74.1175 71° East 441 507 16,900 -3,000 Descending Boston Center
Mon 11:45:08 AM 44.2658 -73.9650 70° East 436 502 13,900 -2,850 Descending Boston Center
Mon 11:46:08 AM 44.3031 -73.8208 70° East 413 475 11,200 -2,050 Descending Boston Center
Mon 11:47:08 AM 44.3233 -73.6792 79° East 356 410 9,800 -1,650 Descending Boston Center
Mon 11:48:08 AM 44.3372 -73.5633 80° East 315 362 7,900 -2,000 Descending Boston Center
Mon 11:49:08 AM 44.3547 -73.4506 78° East 295 339 5,800 -1,850 Descending Boston Center
Mon 11:50:08 AM 44.3703 -73.3550 77° East 285 328 4,200 -1,050 Descending Boston Center
Mon 11:51:08 AM 44.3833 -73.2564 79° East 266 306 3,700 -450 Descending Boston Center
Mon 11:52:08 AM 44.3839 -73.1692 89° East 231 266 3,300 -400 Descending Boston Center

Login

Don't have an account? Register now (free) for customized features, flight alerts, and more!